Bakanas, Kazakhstan
Current Conditions -  °F | °C
As of 1:00 PM on Friday 19 Dec 2014 (Local Time) from UAAA Reporting Station
Smoke Smoke  
Wind Chill: 28°   Ceiling: 10000
Heat Index: 32°   Visibility: 0.56mi
Dew Point: 18°   Wind: 4mph
Humidity: 55%   Direction: 350°N
Pressure: 30.21"   Gusts: NA
Location:  44.83°N, 76.17°E
Report Text: UAAA 190700Z 35002MPS 300V010 0900 R23R/0900D R23L/1000N FUBKN100 M00/M08 Q1023 R88/9///60 NOSIG
Loading
Personal Weather Stations






























Interactive Weather Map New forecast layout! Learn more

10-Day Weather Forecast

Advertisements
Track Severe Weather on mobile